Canadian Empress — VX6095 — position and weather

sailwx.info

Track history (hours):
 
Tides and Currents Weather Stations Pressure Air Temp Water Temp Dewpoint Dewpoint Depression Visibility Wind Speed Wind Dir Waves Ship Positions

Canadian Empress

Last reported at 2016-Jun-24 01:34 UTC. Time now 2016-Jun-25 23:15 UTC.
Position N 44°14' W 076°29'.

Length 32 m.

Type: Passenger vessel. MMSI: 314954012.

Date/timePositionNaut miles runAvg speedWind from/ knotsBaromVisibWave heightAir tempDewpointWater temp
2016-Jun-24 01:34N 44°14' W 076°29'0 0.0
2016-Jun-24 00:34N 44°14' W 076°29'0 0.0
2016-Jun-23 23:34N 44°14' W 076°29'0 0.0
2016-Jun-23 22:34N 44°14' W 076°29'0 0.0
2016-Jun-23 21:34N 44°14' W 076°29'0 0.0
2016-Jun-23 20:34N 44°14' W 076°29'0 0.0
2016-Jun-23 19:34N 44°14' W 076°29'0 0.0
2016-Jun-23 18:34N 44°14' W 076°29'4 3.8
2016-Jun-23 17:32N 44°14' W 076°23'  
2016-Jun-19 23:34N 44°13' W 076°28'0 0.1
2016-Jun-19 17:33N 44°13' W 076°29'  
2016-Jun-16 12:32N 45°20' W 073°54'9 8.9
2016-Jun-16 11:34N 45°25' W 073°44'2 0.2
2016-Jun-16 03:33N 45°26' W 073°42'3 2.6
2016-Jun-16 02:33N 45°24' W 073°45'19 2.1
2016-Jun-15 17:24N 45°40' W 073°28'6 7.7
2016-Jun-15 16:33N 45°45' W 073°24'8 8.0
2016-Jun-15 15:33N 45°51' W 073°16'8 7.8
2016-Jun-15 14:33N 45°59' W 073°12'7 7.4
2016-Jun-15 13:33N 46°04' W 073°04'8 7.8
2016-Jun-15 12:30N 46°10' W 072°56'  
Track history (hours):
 
Tides and Currents Weather Stations Pressure Air Temp Water Temp Dewpoint Dewpoint Depression Visibility Wind Speed Wind Dir Waves Ship Positions

Canadian Empress

Last reported at 2016-Jun-24 01:34 UTC. Time now 2016-Jun-25 23:15 UTC.
Position N 44°14' W 076°29'.

Length 32 m.

Type: Passenger vessel. MMSI: 314954012.

Date/timePositionNaut miles runAvg speedWind from/ knotsBaromVisibWave heightAir tempDewpointWater temp
2016-Jun-24 01:34N 44°14' W 076°29'0 0.0
2016-Jun-24 00:34N 44°14' W 076°29'0 0.0
2016-Jun-23 23:34N 44°14' W 076°29'0 0.0
2016-Jun-23 22:34N 44°14' W 076°29'0 0.0
2016-Jun-23 21:34N 44°14' W 076°29'0 0.0
2016-Jun-23 20:34N 44°14' W 076°29'0 0.0
2016-Jun-23 19:34N 44°14' W 076°29'0 0.0
2016-Jun-23 18:34N 44°14' W 076°29'4 3.8
2016-Jun-23 17:32N 44°14' W 076°23'  
2016-Jun-19 23:34N 44°13' W 076°28'0 0.1
2016-Jun-19 17:33N 44°13' W 076°29'  
2016-Jun-16 12:32N 45°20' W 073°54'9 8.9
2016-Jun-16 11:34N 45°25' W 073°44'2 0.2
2016-Jun-16 03:33N 45°26' W 073°42'3 2.6
2016-Jun-16 02:33N 45°24' W 073°45'19 2.1
2016-Jun-15 17:24N 45°40' W 073°28'6 7.7
2016-Jun-15 16:33N 45°45' W 073°24'8 8.0
2016-Jun-15 15:33N 45°51' W 073°16'8 7.8
2016-Jun-15 14:33N 45°59' W 073°12'7 7.4
2016-Jun-15 13:33N 46°04' W 073°04'8 7.8
2016-Jun-15 12:30N 46°10' W 072°56'  

Dump ship's entire track history